createdAt,value
2018-02-23T00:00:02.160Z,0.96
2018-02-23T00:01:02.137Z,0.88
2018-02-23T00:02:02.106Z,0.90
2018-02-23T00:03:09.074Z,0.82
2018-02-23T00:04:02.054Z,0.80
2018-02-23T00:05:02.023Z,0.76
2018-02-23T00:06:01.997Z,0.80
2018-02-23T00:07:01.973Z,0.74
2018-02-23T00:08:01.940Z,0.74
2018-02-23T00:09:01.913Z,0.74
2018-02-23T00:10:01.886Z,0.73
2018-02-23T00:11:01.861Z,0.84
2018-02-23T00:12:01.830Z,0.78
2018-02-23T00:13:01.801Z,0.80
2018-02-23T00:14:01.783Z,0.80
2018-02-23T00:15:01.747Z,0.82
2018-02-23T00:16:01.726Z,0.74
2018-02-23T00:17:01.701Z,0.78
2018-02-23T00:18:01.663Z,0.78
2018-02-23T00:19:01.645Z,0.73
2018-02-23T00:20:01.616Z,0.78
2018-02-23T00:21:01.579Z,0.76
2018-02-23T00:22:01.579Z,0.82
2018-02-23T00:23:01.526Z,0.78
2018-02-23T00:24:01.496Z,0.70
2018-02-23T00:25:01.489Z,0.72
2018-02-23T00:26:01.442Z,0.72
2018-02-23T00:27:01.431Z,0.78
2018-02-23T00:28:01.409Z,0.76
2018-02-23T00:29:01.359Z,0.70
2018-02-23T00:30:01.338Z,0.70
2018-02-23T00:31:01.313Z,0.66
2018-02-23T00:32:01.276Z,0.70
2018-02-23T00:33:01.256Z,0.74
2018-02-23T00:34:01.222Z,0.69
2018-02-23T00:35:01.191Z,0.64
2018-02-23T00:36:01.177Z,0.60
2018-02-23T00:37:01.137Z,0.60
2018-02-23T00:38:01.114Z,0.59
2018-02-23T00:39:01.079Z,0.59
2018-02-23T00:40:01.052Z,0.56
2018-02-23T00:41:01.029Z,0.44
2018-02-23T00:42:00.996Z,0.62
2018-02-23T00:43:00.967Z,0.60
2018-02-23T00:44:00.938Z,0.64
2018-02-23T00:45:00.972Z,0.64
2018-02-23T00:46:00.887Z,0.60
2018-02-23T00:47:00.861Z,0.51
2018-02-23T00:48:00.830Z,0.45
2018-02-23T00:49:00.802Z,0.50
2018-02-23T00:50:00.773Z,0.47
2018-02-23T00:51:00.745Z,0.47
2018-02-23T00:52:00.723Z,0.44
2018-02-23T00:53:00.694Z,0.41
2018-02-23T00:54:00.663Z,0.43
2018-02-23T00:55:00.636Z,0.41
2018-02-23T00:56:00.605Z,0.48
2018-02-23T00:57:00.581Z,0.44
2018-02-23T00:58:00.560Z,0.44
2018-02-23T00:59:00.522Z,0.37
2018-02-23T01:00:00.505Z,0.48
2018-02-23T01:01:00.509Z,0.45
2018-02-23T01:02:00.439Z,0.41
2018-02-23T01:03:00.410Z,0.43
2018-02-23T01:04:00.385Z,0.45
2018-02-23T01:05:00.359Z,0.36
2018-02-23T01:06:00.327Z,0.29
2018-02-23T01:07:00.300Z,0.27
2018-02-23T01:08:00.277Z,0.30
2018-02-23T01:09:00.247Z,0.29
2018-02-23T01:10:00.217Z,0.29
2018-02-23T01:11:00.197Z,0.27
2018-02-23T01:12:00.164Z,0.29
2018-02-23T01:13:00.133Z,0.27
2018-02-23T01:14:00.104Z,0.29
2018-02-23T01:15:00.088Z,0.23
2018-02-23T01:16:00.048Z,0.25
2018-02-23T01:17:00.027Z,0.36
2018-02-23T01:17:59.998Z,0.26
2018-02-23T01:18:59.964Z,0.25
2018-02-23T01:19:59.942Z,0.27
2018-02-23T01:20:59.914Z,0.25
2018-02-23T01:21:59.884Z,0.27
2018-02-23T01:22:59.855Z,0.27
2018-02-23T01:23:59.836Z,0.25
2018-02-23T01:24:59.804Z,0.25
2018-02-23T01:25:59.769Z,0.26
2018-02-23T01:26:59.762Z,0.18
2018-02-23T01:27:59.719Z,0.18
2018-02-23T01:28:59.687Z,0.11
2018-02-23T01:29:59.661Z,0.12
2018-02-23T01:30:59.633Z,0.08
2018-02-23T01:31:59.608Z,0.17
2018-02-23T01:32:59.589Z,0.04
2018-02-23T01:33:59.553Z,0.14
2018-02-23T01:34:59.525Z,0.09
2018-02-23T01:35:59.524Z,0.07
2018-02-23T01:36:59.465Z,0.04
2018-02-23T01:37:59.477Z,0.09
2018-02-23T01:38:59.407Z,0.00
2018-02-23T01:39:59.377Z,0.05
2018-02-23T01:40:59.352Z,0.09
2018-02-23T01:41:59.326Z,0.00
2018-02-23T01:42:59.315Z,-0.04
2018-02-23T01:43:59.270Z,-0.03
2018-02-23T01:44:59.239Z,-0.03
2018-02-23T01:45:59.209Z,-0.03
2018-02-23T01:46:59.186Z,-0.14
2018-02-23T01:47:59.162Z,-0.04
2018-02-23T01:48:59.127Z,-0.14
2018-02-23T01:49:59.099Z,-0.14
2018-02-23T01:50:59.070Z,-0.09
2018-02-23T01:51:59.046Z,-0.01
2018-02-23T01:52:59.014Z,-0.07
2018-02-23T01:53:58.988Z,-0.04
2018-02-23T01:54:58.960Z,-0.10
2018-02-23T01:55:58.936Z,-0.09
2018-02-23T01:56:58.905Z,-0.03
2018-02-23T01:57:58.877Z,-0.06
2018-02-23T01:58:58.853Z,-0.07
2018-02-23T01:59:58.820Z,-0.07
2018-02-23T02:00:58.797Z,-0.07
2018-02-23T02:01:58.769Z,-0.09
2018-02-23T02:02:58.734Z,-0.09
2018-02-23T02:03:58.707Z,-0.13
2018-02-23T02:04:58.693Z,-0.07
2018-02-23T02:05:58.650Z,-0.11
2018-02-23T02:06:58.622Z,-0.11
2018-02-23T02:07:58.598Z,-0.11
2018-02-23T02:08:58.566Z,-0.14
2018-02-23T02:09:58.536Z,-0.22
2018-02-23T02:10:58.508Z,-0.14
2018-02-23T02:11:58.487Z,-0.20
2018-02-23T02:12:58.455Z,-0.22
2018-02-23T02:13:58.436Z,-0.11
2018-02-23T02:14:58.408Z,-0.14
2018-02-23T02:15:58.370Z,-0.09
2018-02-23T02:16:58.341Z,-0.21
2018-02-23T02:17:58.313Z,-0.13
2018-02-23T02:18:58.285Z,-0.14
2018-02-23T02:19:58.256Z,-0.14
2018-02-23T02:20:58.232Z,-0.07
2018-02-23T02:21:58.204Z,-0.14
2018-02-23T02:22:58.173Z,-0.13
2018-02-23T02:23:58.144Z,-0.13
2018-02-23T02:24:58.119Z,-0.11
2018-02-23T02:25:58.088Z,-0.10
2018-02-23T02:26:58.062Z,-0.04
2018-02-23T02:27:58.042Z,-0.17
2018-02-23T02:28:58.011Z,-0.20
2018-02-23T02:29:57.982Z,-0.27
2018-02-23T02:30:57.958Z,-0.24
2018-02-23T02:31:57.922Z,-0.28
2018-02-23T02:32:57.892Z,-0.22
2018-02-23T02:34:04.601Z,-0.22
2018-02-23T02:34:57.836Z,-0.22
2018-02-23T02:35:57.821Z,-0.11
2018-02-23T02:36:57.785Z,-0.17
2018-02-23T02:37:57.801Z,-0.13
2018-02-23T02:38:57.725Z,-0.17
2018-02-23T02:39:57.694Z,-0.20
2018-02-23T02:40:57.666Z,-0.11
2018-02-23T02:41:57.644Z,-0.14
2018-02-23T02:42:57.613Z,-0.21
2018-02-23T02:43:57.585Z,-0.20
2018-02-23T02:44:57.553Z,-0.14
2018-02-23T02:45:57.524Z,-0.27
2018-02-23T02:46:57.502Z,-0.25
2018-02-23T02:47:57.471Z,-0.25
2018-02-23T02:48:57.445Z,-0.29
2018-02-23T02:49:57.417Z,-0.31
2018-02-23T02:50:57.392Z,-0.24
2018-02-23T02:51:57.353Z,-0.35
2018-02-23T02:52:57.328Z,-0.35
2018-02-23T02:53:57.305Z,-0.29
2018-02-23T02:54:57.277Z,-0.25
2018-02-23T02:55:57.246Z,-0.31
2018-02-23T02:56:57.282Z,-0.32
2018-02-23T02:57:57.186Z,-0.25
2018-02-23T02:58:57.161Z,-0.20
2018-02-23T02:59:57.141Z,-0.42
2018-02-23T03:00:57.102Z,-0.31
2018-02-23T03:01:57.075Z,-0.34
2018-02-23T03:02:57.046Z,-0.38
2018-02-23T03:03:57.017Z,-0.39
2018-02-23T03:04:56.988Z,-0.40
2018-02-23T03:05:56.971Z,-0.29
2018-02-23T03:06:56.941Z,-0.40
2018-02-23T03:07:56.904Z,-0.32
2018-02-23T03:08:56.901Z,-0.43
2018-02-23T03:09:56.888Z,-0.43
2018-02-23T03:10:56.826Z,-0.45
2018-02-23T03:11:56.801Z,-0.50
2018-02-23T03:12:56.765Z,-0.55
2018-02-23T03:13:57.701Z,-0.53
2018-02-23T03:14:56.707Z,-0.49
2018-02-23T03:15:56.682Z,-0.57
2018-02-23T03:16:56.661Z,-0.58
2018-02-23T03:17:56.621Z,-0.49
2018-02-23T03:18:56.605Z,-0.47
2018-02-23T03:19:56.587Z,-0.40
2018-02-23T03:20:56.536Z,-0.58
2018-02-23T03:21:56.520Z,-0.47
2018-02-23T03:22:56.484Z,-0.50
2018-02-23T03:23:56.453Z,-0.53
2018-02-23T03:24:56.436Z,-0.55
2018-02-23T03:25:56.404Z,-0.50
2018-02-23T03:26:56.366Z,-0.57
2018-02-23T03:27:56.339Z,-0.49
2018-02-23T03:28:56.311Z,-0.52
2018-02-23T03:29:56.283Z,-0.53
2018-02-23T03:30:56.257Z,-0.55
2018-02-23T03:31:56.228Z,-0.58
2018-02-23T03:32:56.200Z,-0.57
2018-02-23T03:33:56.169Z,-0.58
2018-02-23T03:34:56.146Z,-0.57
2018-02-23T03:35:56.112Z,-0.60
2018-02-23T03:36:56.083Z,-0.67
2018-02-23T03:37:56.059Z,-0.64
2018-02-23T03:38:56.028Z,-0.67
2018-02-23T03:39:55.999Z,-0.66
2018-02-23T03:40:55.975Z,-0.55
2018-02-23T03:41:55.975Z,-0.58
2018-02-23T03:42:55.916Z,-0.64
2018-02-23T03:43:55.959Z,-0.67
2018-02-23T03:44:55.859Z,-0.58
2018-02-23T03:45:55.840Z,-0.64
2018-02-23T03:46:55.801Z,-0.67
2018-02-23T03:47:55.772Z,-0.61
2018-02-23T03:48:55.743Z,-0.63
2018-02-23T03:49:55.716Z,-0.68
2018-02-23T03:50:55.695Z,-0.76
2018-02-23T03:51:55.657Z,-0.64
2018-02-23T03:52:55.632Z,-0.76
2018-02-23T03:53:55.602Z,-0.79
2018-02-23T03:54:55.575Z,-0.81
2018-02-23T03:55:55.555Z,-0.75
2018-02-23T03:56:55.522Z,-0.85
2018-02-23T03:57:55.487Z,-0.75
2018-02-23T03:58:55.461Z,-0.82
2018-02-23T03:59:55.433Z,-0.85
2018-02-23T04:00:55.400Z,-0.81
2018-02-23T04:01:55.373Z,-0.86
2018-02-23T04:02:55.347Z,-0.78
2018-02-23T04:03:55.315Z,-0.85
2018-02-23T04:04:55.291Z,-0.86
2018-02-23T04:05:55.263Z,-0.92
2018-02-23T04:06:55.234Z,-0.94
2018-02-23T04:07:55.204Z,-0.98
2018-02-23T04:08:55.186Z,-0.90
2018-02-23T04:09:55.151Z,-0.92
2018-02-23T04:10:55.121Z,-0.89
2018-02-23T04:11:55.114Z,-0.86
2018-02-23T04:12:55.070Z,-1.04
2018-02-23T04:13:55.084Z,-0.98
2018-02-23T04:14:55.002Z,-1.00
2018-02-23T04:15:54.981Z,-1.01
2018-02-23T04:16:54.946Z,-1.10
2018-02-23T04:17:54.921Z,-1.04
2018-02-23T04:18:54.894Z,-1.07
2018-02-23T04:19:54.864Z,-0.98
2018-02-23T04:20:54.835Z,-1.01
2018-02-23T04:21:54.805Z,-1.03
2018-02-23T04:22:54.776Z,-1.08
2018-02-23T04:23:54.749Z,-1.05
2018-02-23T04:24:54.720Z,-1.08
2018-02-23T04:25:54.710Z,-1.07
2018-02-23T04:26:54.662Z,-1.08
2018-02-23T04:27:54.638Z,-1.04
2018-02-23T04:28:54.616Z,-1.05
2018-02-23T04:29:54.580Z,-1.08
2018-02-23T04:30:54.554Z,-1.05
2018-02-23T04:31:54.533Z,-1.05
2018-02-23T04:32:54.495Z,-1.05
2018-02-23T04:33:54.467Z,-1.07
2018-02-23T04:35:01.109Z,-1.08
2018-02-23T04:35:54.418Z,-1.03
2018-02-23T04:36:54.376Z,-1.01
2018-02-23T04:37:54.367Z,-1.01
2018-02-23T04:38:54.322Z,-1.01
2018-02-23T04:39:54.295Z,-1.07
2018-02-23T04:40:54.264Z,-1.00
2018-02-23T04:41:54.235Z,-1.04
2018-02-23T04:42:54.209Z,-0.89
2018-02-23T04:43:54.181Z,-1.07
2018-02-23T04:44:54.150Z,-1.05
2018-02-23T04:45:54.157Z,-1.11
2018-02-23T04:46:54.092Z,-1.05
2018-02-23T04:47:54.068Z,-1.00
2018-02-23T04:48:54.038Z,-1.04
2018-02-23T04:49:54.009Z,-1.04
2018-02-23T04:50:53.984Z,-1.15
2018-02-23T04:51:53.949Z,-1.07
2018-02-23T04:52:53.922Z,-1.07
2018-02-23T04:53:53.894Z,-1.18
2018-02-23T04:54:53.865Z,-1.11
2018-02-23T04:55:53.841Z,-1.08
2018-02-23T04:56:53.807Z,-1.07
2018-02-23T04:57:53.784Z,-1.08
2018-02-23T04:58:53.751Z,-1.07
2018-02-23T04:59:53.720Z,-1.16
2018-02-23T05:00:53.698Z,-1.10
2018-02-23T05:01:53.671Z,-1.21
2018-02-23T05:02:53.641Z,-1.22
2018-02-23T05:03:53.617Z,-1.16
2018-02-23T05:04:53.581Z,-1.26
2018-02-23T05:05:53.555Z,-1.19
2018-02-23T05:06:53.524Z,-1.25
2018-02-23T05:07:53.493Z,-1.22
2018-02-23T05:08:53.466Z,-1.22
2018-02-23T05:09:53.435Z,-1.19
2018-02-23T05:10:53.413Z,-1.15
2018-02-23T05:11:53.377Z,-1.15
2018-02-23T05:12:53.356Z,-1.26
2018-02-23T05:13:53.317Z,-1.23
2018-02-23T05:14:53.292Z,-1.25
2018-02-23T05:15:53.299Z,-1.13
2018-02-23T05:16:53.255Z,-1.23
2018-02-23T05:17:53.276Z,-1.21
2018-02-23T05:18:53.192Z,-1.21
2018-02-23T05:19:53.146Z,-1.39
2018-02-23T05:20:53.121Z,-1.37
2018-02-23T05:21:53.091Z,-1.44
2018-02-23T05:22:53.063Z,-1.51
2018-02-23T05:23:53.031Z,-1.44
2018-02-23T05:24:53.010Z,-1.43
2018-02-23T05:25:52.979Z,-1.49
2018-02-23T05:26:52.947Z,-1.39
2018-02-23T05:27:52.919Z,-1.43
2018-02-23T05:28:52.905Z,-1.39
2018-02-23T05:29:52.861Z,-1.31
2018-02-23T05:30:52.840Z,-1.39
2018-02-23T05:31:52.817Z,-1.36
2018-02-23T05:32:52.777Z,-1.31
2018-02-23T05:33:52.749Z,-1.29
2018-02-23T05:34:52.718Z,-1.40
2018-02-23T05:35:52.697Z,-1.43
2018-02-23T05:36:52.665Z,-1.39
2018-02-23T05:37:52.633Z,-1.34
2018-02-23T05:38:52.603Z,-1.28
2018-02-23T05:39:52.577Z,-1.47
2018-02-23T05:40:52.546Z,-1.37
2018-02-23T05:41:52.521Z,-1.44
2018-02-23T05:42:52.487Z,-1.43
2018-02-23T05:43:52.459Z,-1.54
2018-02-23T05:44:52.433Z,-1.49
2018-02-23T05:45:52.403Z,-1.52
2018-02-23T05:46:52.380Z,-1.57
2018-02-23T05:47:52.347Z,-1.55
2018-02-23T05:48:52.350Z,-1.51
2018-02-23T05:49:52.333Z,-1.58
2018-02-23T05:50:52.258Z,-1.61
2018-02-23T05:51:52.245Z,-1.61
2018-02-23T05:52:52.200Z,-1.61
2018-02-23T05:53:52.169Z,-1.61
2018-02-23T05:54:52.149Z,-1.64
2018-02-23T05:55:52.113Z,-1.58
2018-02-23T05:56:52.084Z,-1.49
2018-02-23T05:57:52.059Z,-1.61
2018-02-23T05:58:52.038Z,-1.58
2018-02-23T05:59:51.997Z,-1.64
2018-02-23T06:00:51.968Z,-1.58
2018-02-23T06:01:51.939Z,-1.64
2018-02-23T06:02:51.916Z,-1.59
2018-02-23T06:03:51.882Z,-1.57
2018-02-23T06:04:51.874Z,-1.65
2018-02-23T06:05:51.825Z,-1.57
2018-02-23T06:06:51.795Z,-1.69
2018-02-23T06:07:51.768Z,-1.57
2018-02-23T06:08:51.746Z,-1.57
2018-02-23T06:09:51.713Z,-1.59
2018-02-23T06:10:51.684Z,-1.47
2018-02-23T06:11:51.653Z,-1.57
2018-02-23T06:12:51.622Z,-1.62
2018-02-23T06:13:51.594Z,-1.59
2018-02-23T06:14:51.568Z,-1.58
2018-02-23T06:15:51.536Z,-1.58
2018-02-23T06:16:51.508Z,-1.58
2018-02-23T06:17:51.479Z,-1.57
2018-02-23T06:18:51.454Z,-1.64
2018-02-23T06:19:51.468Z,-1.61
2018-02-23T06:20:51.446Z,-1.65
2018-02-23T06:21:51.384Z,-1.70
2018-02-23T06:22:51.338Z,-1.70
2018-02-23T06:23:51.313Z,-1.62
2018-02-23T06:24:51.279Z,-1.76
2018-02-23T06:25:51.250Z,-1.64
2018-02-23T06:26:51.221Z,-1.65
2018-02-23T06:27:51.194Z,-1.75
2018-02-23T06:28:51.166Z,-1.76
2018-02-23T06:29:51.136Z,-1.72
2018-02-23T06:30:51.126Z,-1.79
2018-02-23T06:31:51.073Z,-1.78
2018-02-23T06:32:51.050Z,-1.96
2018-02-23T06:33:51.019Z,-1.91
2018-02-23T06:34:50.996Z,-1.90
2018-02-23T06:35:50.965Z,-1.98
2018-02-23T06:36:50.936Z,-1.90
2018-02-23T06:37:50.900Z,-1.90
2018-02-23T06:38:50.886Z,-2.00
2018-02-23T06:39:50.843Z,-1.96
2018-02-23T06:40:50.817Z,-1.91
2018-02-23T06:41:50.790Z,-1.85
2018-02-23T06:42:50.756Z,-1.83
2018-02-23T06:43:50.731Z,-1.76
2018-02-23T06:44:50.704Z,-1.85
2018-02-23T06:45:50.672Z,-1.85
2018-02-23T06:46:50.649Z,-1.75
2018-02-23T06:47:50.612Z,-1.76
2018-02-23T06:48:50.585Z,-1.76
2018-02-23T06:49:50.552Z,-1.70
2018-02-23T06:50:50.531Z,-1.70
2018-02-23T06:51:50.509Z,-1.76
2018-02-23T06:52:50.466Z,-1.76
2018-02-23T06:53:50.462Z,-1.76
2018-02-23T06:54:50.412Z,-1.67
2018-02-23T06:55:50.381Z,-1.69
2018-02-23T06:56:50.350Z,-1.65
2018-02-23T06:57:50.324Z,-1.62
2018-02-23T06:58:50.291Z,-1.55
2018-02-23T06:59:50.265Z,-1.52
2018-02-23T07:00:50.235Z,-1.43
2018-02-23T07:01:50.216Z,-1.41
2018-02-23T07:02:50.179Z,-1.36
2018-02-23T07:03:50.171Z,-1.41
2018-02-23T07:04:50.134Z,-1.37
2018-02-23T07:05:50.665Z,-1.33
2018-02-23T07:06:50.064Z,-1.26
2018-02-23T07:07:50.046Z,-1.22
2018-02-23T07:08:50.008Z,-1.19
2018-02-23T07:09:49.975Z,-1.05
2018-02-23T07:10:49.977Z,-1.05
2018-02-23T07:11:49.919Z,-0.97
2018-02-23T07:12:49.905Z,-0.95
2018-02-23T07:13:49.862Z,-0.94
2018-02-23T07:14:49.850Z,-0.84
2018-02-23T07:15:49.809Z,-0.92
2018-02-23T07:16:49.777Z,-0.82
2018-02-23T07:17:49.752Z,-0.79
2018-02-23T07:18:49.717Z,-0.84
2018-02-23T07:19:49.692Z,-0.85
2018-02-23T07:20:49.659Z,-0.75
2018-02-23T07:21:49.665Z,-0.82
2018-02-23T07:22:49.617Z,-0.64
2018-02-23T07:23:49.606Z,-0.61
2018-02-23T07:24:49.549Z,-0.67
2018-02-23T07:25:49.522Z,-0.63
2018-02-23T07:26:49.492Z,-0.52
2018-02-23T07:27:49.467Z,-0.50
2018-02-23T07:28:49.432Z,-0.58
2018-02-23T07:29:49.405Z,-0.53
2018-02-23T07:30:49.377Z,-0.58
2018-02-23T07:31:49.351Z,-0.50
2018-02-23T07:32:49.319Z,-0.53
2018-02-23T07:33:49.296Z,-0.57
2018-02-23T07:34:49.264Z,-0.52
2018-02-23T07:35:49.236Z,-0.42
2018-02-23T07:36:49.217Z,-0.42
2018-02-23T07:37:49.204Z,-0.28
2018-02-23T07:38:49.162Z,-0.25
2018-02-23T07:39:49.128Z,-0.25
2018-02-23T07:40:49.092Z,-0.20
2018-02-23T07:41:49.068Z,-0.14
2018-02-23T07:42:49.046Z,-0.04
2018-02-23T07:43:49.010Z,-0.11
2018-02-23T07:44:48.986Z,0.04
2018-02-23T07:45:48.955Z,0.07
2018-02-23T07:46:48.929Z,0.09
2018-02-23T07:47:48.897Z,0.17
2018-02-23T07:48:48.874Z,0.29
2018-02-23T07:49:48.848Z,0.32
2018-02-23T07:50:48.815Z,0.45
2018-02-23T07:51:48.782Z,0.47
2018-02-23T07:52:48.757Z,0.59
2018-02-23T07:53:48.757Z,0.67
2018-02-23T07:54:48.726Z,0.70
2018-02-23T07:55:48.708Z,0.76
2018-02-23T07:56:48.652Z,0.82
2018-02-23T07:57:48.619Z,0.88
2018-02-23T07:58:48.598Z,0.98
2018-02-23T07:59:48.565Z,0.99
2018-02-23T08:00:48.532Z,0.99
2018-02-23T08:01:48.510Z,1.03
2018-02-23T08:02:48.485Z,1.06
2018-02-23T08:03:48.449Z,1.12
2018-02-23T08:04:48.430Z,1.21
2018-02-23T08:05:48.394Z,1.27
2018-02-23T08:06:48.367Z,1.38
2018-02-23T08:07:48.340Z,1.38
2018-02-23T08:08:48.316Z,1.38
2018-02-23T08:09:48.283Z,1.41
2018-02-23T08:10:48.257Z,1.41
2018-02-23T08:11:48.232Z,1.45
2018-02-23T08:12:48.204Z,1.57
2018-02-23T08:13:48.177Z,1.55
2018-02-23T08:14:48.149Z,1.59
2018-02-23T08:15:48.120Z,1.59
2018-02-23T08:16:48.093Z,1.60
2018-02-23T08:17:48.083Z,1.57
2018-02-23T08:18:48.039Z,1.69
2018-02-23T08:19:48.013Z,1.73
2018-02-23T08:20:47.983Z,1.73
2018-02-23T08:21:47.956Z,1.75
2018-02-23T08:22:47.929Z,1.69
2018-02-23T08:23:47.898Z,1.77
2018-02-23T08:24:47.876Z,1.82
2018-02-23T08:25:47.844Z,1.81
2018-02-23T08:26:47.867Z,1.87
2018-02-23T08:27:47.806Z,1.85
2018-02-23T08:28:47.802Z,1.92
2018-02-23T08:29:47.736Z,1.85
2018-02-23T08:30:47.709Z,1.81
2018-02-23T08:31:47.680Z,1.75
2018-02-23T08:32:47.654Z,1.85
2018-02-23T08:33:47.626Z,1.81
2018-02-23T08:34:47.601Z,1.80
2018-02-23T08:35:47.568Z,1.78
2018-02-23T08:36:47.548Z,1.73
2018-02-23T08:37:47.523Z,1.60
2018-02-23T08:38:47.541Z,1.52
2018-02-23T08:39:47.534Z,1.46
2018-02-23T08:40:47.435Z,1.31
2018-02-23T08:41:47.406Z,1.34
2018-02-23T08:42:47.382Z,1.39
2018-02-23T08:43:47.354Z,1.27
2018-02-23T08:44:47.324Z,1.41
2018-02-23T08:45:47.310Z,1.38
2018-02-23T08:46:47.275Z,1.36
2018-02-23T08:47:47.242Z,1.44
2018-02-23T08:48:47.225Z,1.36
2018-02-23T08:49:47.194Z,1.39
2018-02-23T08:50:47.163Z,1.39
2018-02-23T08:51:47.138Z,1.30
2018-02-23T08:52:47.107Z,1.36
2018-02-23T08:53:47.089Z,1.38
2018-02-23T08:54:47.057Z,1.34
2018-02-23T08:55:47.052Z,1.38
2018-02-23T08:56:46.997Z,1.28
2018-02-23T08:57:46.974Z,1.34
2018-02-23T08:58:46.947Z,1.36
2018-02-23T08:59:46.916Z,1.41
2018-02-23T09:00:46.901Z,1.44
2018-02-23T09:01:46.906Z,1.53
2018-02-23T09:02:46.835Z,1.59
2018-02-23T09:03:46.820Z,1.77
2018-02-23T09:04:46.793Z,1.80
2018-02-23T09:05:46.752Z,1.73
2018-02-23T09:06:46.733Z,1.81
2018-02-23T09:07:46.707Z,1.82
2018-02-23T09:08:46.673Z,1.85
2018-02-23T09:09:46.650Z,1.87
2018-02-23T09:10:46.624Z,1.91
2018-02-23T09:11:46.638Z,1.78
2018-02-23T09:12:46.565Z,1.73
2018-02-23T09:13:46.546Z,1.62
2018-02-23T09:14:46.509Z,1.55
2018-02-23T09:15:46.488Z,1.41
2018-02-23T09:16:46.459Z,1.45
2018-02-23T09:17:46.426Z,1.26
2018-02-23T09:18:46.422Z,1.34
2018-02-23T09:19:46.382Z,1.39
2018-02-23T09:20:46.345Z,1.39
2018-02-23T09:21:46.331Z,1.44
2018-02-23T09:22:46.298Z,1.41
2018-02-23T09:23:46.270Z,1.39
2018-02-23T09:24:46.245Z,1.41
2018-02-23T09:25:46.219Z,1.41
2018-02-23T09:26:46.184Z,1.57
2018-02-23T09:27:46.161Z,1.71
2018-02-23T09:28:46.137Z,1.69
2018-02-23T09:29:46.104Z,1.84
2018-02-23T09:30:46.077Z,1.87
2018-02-23T09:31:46.060Z,1.87
2018-02-23T09:32:46.021Z,2.00
2018-02-23T09:33:46.033Z,2.01
2018-02-23T09:34:45.995Z,2.19
2018-02-23T09:35:45.938Z,2.25
2018-02-23T09:36:45.918Z,2.37
2018-02-23T09:37:45.892Z,2.39
2018-02-23T09:38:45.865Z,2.42
2018-02-23T09:39:45.834Z,2.40
2018-02-23T09:40:45.803Z,2.43
2018-02-23T09:41:45.773Z,2.48
2018-02-23T09:42:45.755Z,2.50
2018-02-23T09:43:45.730Z,2.35
2018-02-23T09:44:45.697Z,2.32
2018-02-23T09:45:45.680Z,2.33
2018-02-23T09:46:45.643Z,2.40
2018-02-23T09:47:45.610Z,2.24
2018-02-23T09:48:45.630Z,2.18
2018-02-23T09:49:45.562Z,2.21
2018-02-23T09:50:45.533Z,2.17
2018-02-23T09:51:45.504Z,2.18
2018-02-23T09:52:45.487Z,2.14
2018-02-23T09:53:45.452Z,2.12
2018-02-23T09:54:45.425Z,2.11
2018-02-23T09:55:45.406Z,2.10
2018-02-23T09:56:45.369Z,2.07
2018-02-23T09:57:45.345Z,1.99
2018-02-23T09:58:45.330Z,1.97
2018-02-23T09:59:45.290Z,1.89
2018-02-23T10:00:45.265Z,1.80
2018-02-23T10:01:45.398Z,1.87
2018-02-23T10:02:45.212Z,1.82
2018-02-23T10:03:45.184Z,1.87
2018-02-23T10:04:45.158Z,1.82
2018-02-23T10:05:45.146Z,1.85
2018-02-23T10:06:45.099Z,1.85
2018-02-23T10:07:45.076Z,1.91
2018-02-23T10:08:45.084Z,1.92
2018-02-23T10:09:45.016Z,1.84
2018-02-23T10:10:45.001Z,2.01
2018-02-23T10:11:44.962Z,1.99
2018-02-23T10:12:44.938Z,1.92
2018-02-23T10:13:44.912Z,2.07
2018-02-23T10:14:44.883Z,2.10
2018-02-23T10:15:44.860Z,2.07
2018-02-23T10:16:44.830Z,2.06
2018-02-23T10:17:44.800Z,2.07
2018-02-23T10:18:44.775Z,2.06
2018-02-23T10:19:44.757Z,2.15
2018-02-23T10:20:44.716Z,2.10
2018-02-23T10:21:44.696Z,2.15
2018-02-23T10:22:44.675Z,2.19
2018-02-23T10:23:44.637Z,2.22
2018-02-23T10:24:44.613Z,2.21
2018-02-23T10:25:44.608Z,2.22
2018-02-23T10:26:44.557Z,2.30
2018-02-23T10:27:44.533Z,2.25
2018-02-23T10:28:44.503Z,2.11
2018-02-23T10:29:44.476Z,2.14
2018-02-23T10:30:44.454Z,2.19
2018-02-23T10:31:44.430Z,2.19
2018-02-23T10:32:44.438Z,2.25
2018-02-23T10:33:44.372Z,2.24
2018-02-23T10:34:44.344Z,2.42
2018-02-23T10:35:44.322Z,2.35
2018-02-23T10:36:44.284Z,2.33
2018-02-23T10:37:45.205Z,2.24
2018-02-23T10:38:44.244Z,2.39
2018-02-23T10:39:44.204Z,2.39
2018-02-23T10:40:44.174Z,2.42
2018-02-23T10:41:44.150Z,2.39
2018-02-23T10:42:44.174Z,2.53
2018-02-23T10:43:44.093Z,2.55
2018-02-23T10:44:44.072Z,2.71
2018-02-23T10:45:44.050Z,2.72
2018-02-23T10:46:44.021Z,2.84
2018-02-23T10:47:43.992Z,2.86
2018-02-23T10:48:43.977Z,2.86
2018-02-23T10:49:43.951Z,2.91
2018-02-23T10:50:43.907Z,3.00
2018-02-23T10:51:43.903Z,3.08
2018-02-23T10:52:43.873Z,3.27
2018-02-23T10:53:43.828Z,3.42
2018-02-23T10:54:43.808Z,3.42
2018-02-23T10:55:43.785Z,3.51
2018-02-23T10:56:43.748Z,3.55
2018-02-23T10:57:43.737Z,3.67
2018-02-23T10:58:43.721Z,3.73
2018-02-23T10:59:43.668Z,3.73
2018-02-23T11:00:43.640Z,3.69
2018-02-23T11:01:43.622Z,3.76
2018-02-23T11:02:43.597Z,3.73
2018-02-23T11:03:43.568Z,3.70
2018-02-23T11:04:43.540Z,3.90
2018-02-23T11:05:43.516Z,3.85
2018-02-23T11:06:43.485Z,3.80
2018-02-23T11:07:43.459Z,3.94
2018-02-23T11:08:43.428Z,4.03
2018-02-23T11:09:43.403Z,3.99
2018-02-23T11:10:43.381Z,3.98
2018-02-23T11:11:43.360Z,3.94
2018-02-23T11:12:43.323Z,3.99
2018-02-23T11:13:43.302Z,3.94
2018-02-23T11:14:43.275Z,3.92
2018-02-23T11:15:43.262Z,4.00
2018-02-23T11:16:43.221Z,4.06
2018-02-23T11:17:43.194Z,4.08
2018-02-23T11:18:43.170Z,4.09
2018-02-23T11:19:43.138Z,4.23
2018-02-23T11:20:43.115Z,4.26
2018-02-23T11:21:43.125Z,4.38
2018-02-23T11:22:43.067Z,4.36
2018-02-23T11:23:43.034Z,4.36
2018-02-23T11:24:43.010Z,4.43
2018-02-23T11:25:42.988Z,4.45
2018-02-23T11:26:42.961Z,4.54
2018-02-23T11:27:42.929Z,4.56
2018-02-23T11:28:42.904Z,4.57
2018-02-23T11:29:42.879Z,4.61
2018-02-23T11:30:42.857Z,4.74
2018-02-23T11:31:42.834Z,4.71
2018-02-23T11:32:42.802Z,4.64
2018-02-23T11:33:42.784Z,4.49
2018-02-23T11:34:42.748Z,4.57
2018-02-23T11:35:42.729Z,4.51
2018-02-23T11:36:42.721Z,4.61
2018-02-23T11:37:42.672Z,4.72
2018-02-23T11:38:42.656Z,4.75
2018-02-23T11:39:42.632Z,4.89
2018-02-23T11:40:42.597Z,4.98
2018-02-23T11:41:42.576Z,5.11
2018-02-23T11:42:42.558Z,5.22
2018-02-23T11:43:42.521Z,5.27
2018-02-23T11:44:42.500Z,5.36
2018-02-23T11:45:42.474Z,5.47
2018-02-23T11:46:42.444Z,5.47
2018-02-23T11:47:42.423Z,5.41
2018-02-23T11:48:42.394Z,5.48
2018-02-23T11:49:42.365Z,5.51
2018-02-23T11:50:42.376Z,5.48
2018-02-23T11:51:42.313Z,5.43
2018-02-23T11:52:42.284Z,5.36
2018-02-23T11:53:42.260Z,5.51
2018-02-23T11:54:42.234Z,5.50
2018-02-23T11:55:42.257Z,5.62
2018-02-23T11:56:42.206Z,5.59
2018-02-23T11:57:42.198Z,5.69
2018-02-23T11:58:42.132Z,5.69
2018-02-23T11:59:42.107Z,5.65
2018-02-23T12:00:42.080Z,5.62
2018-02-23T12:01:42.057Z,5.57
2018-02-23T12:02:42.027Z,5.65
2018-02-23T12:03:42.002Z,5.57
2018-02-23T12:04:41.983Z,5.62
2018-02-23T12:05:41.960Z,5.62
2018-02-23T12:06:41.937Z,5.59
2018-02-23T12:07:41.909Z,5.55
2018-02-23T12:08:41.878Z,5.66
2018-02-23T12:09:41.849Z,5.66
2018-02-23T12:10:41.826Z,5.65
2018-02-23T12:11:41.804Z,5.70
2018-02-23T12:12:41.779Z,5.72
2018-02-23T12:13:41.750Z,5.85
2018-02-23T12:14:41.727Z,5.88
2018-02-23T12:15:41.698Z,5.87
2018-02-23T12:16:41.670Z,5.94
2018-02-23T12:17:41.647Z,5.98
2018-02-23T12:18:41.624Z,6.02
2018-02-23T12:19:41.595Z,6.05
2018-02-23T12:20:41.585Z,6.06
2018-02-23T12:21:41.549Z,6.08
2018-02-23T12:22:41.525Z,5.98
2018-02-23T12:23:41.495Z,6.00
2018-02-23T12:24:41.495Z,6.03
2018-02-23T12:25:41.463Z,5.91
2018-02-23T12:26:41.420Z,5.91
2018-02-23T12:27:41.396Z,5.97
2018-02-23T12:28:41.370Z,5.98
2018-02-23T12:29:41.345Z,5.98
2018-02-23T12:30:41.316Z,6.03
2018-02-23T12:31:41.301Z,6.06
2018-02-23T12:32:41.268Z,6.12
2018-02-23T12:33:41.243Z,6.15
2018-02-23T12:34:41.227Z,6.24
2018-02-23T12:35:41.190Z,6.28
2018-02-23T12:36:41.171Z,6.25
2018-02-23T12:37:41.141Z,6.28
2018-02-23T12:40:13.204Z,6.31
2018-02-23T12:41:13.151Z,6.32
2018-02-23T12:43:06.507Z,6.43
2018-02-23T12:44:06.457Z,6.35
2018-02-23T12:45:59.812Z,6.24
2018-02-23T12:46:59.770Z,6.25
2018-02-23T12:48:53.150Z,6.24
2018-02-23T12:49:53.093Z,6.16
2018-02-23T12:51:46.462Z,6.31
2018-02-23T12:52:46.397Z,6.11
2018-02-23T12:54:42.266Z,5.94
2018-02-23T12:55:42.241Z,5.90
2018-02-23T12:57:36.434Z,5.67
2018-02-23T12:58:36.385Z,5.69
2018-02-23T13:00:29.747Z,5.77
2018-02-23T13:01:29.702Z,5.80
2018-02-23T13:03:23.098Z,5.84
2018-02-23T13:04:23.050Z,5.88
2018-02-23T13:06:16.412Z,5.93
2018-02-23T13:07:16.368Z,6.05
2018-02-23T13:09:09.728Z,6.02
2018-02-23T13:10:09.677Z,6.06
2018-02-23T13:12:03.835Z,6.05
2018-02-23T13:13:03.794Z,6.03
2018-02-23T13:14:57.136Z,5.91
2018-02-23T13:15:57.089Z,5.87
2018-02-23T13:17:50.488Z,5.84
2018-02-23T13:18:50.448Z,5.85